Time;durP1;ratioP1;P1;durP2;ratioP2;P2;SDS_P1;SDS_P2;PMS_P1;PMS_P2;Temp;Humidity;BMP_temperature;BMP_pressure;BME280_temperature;BME280_humidity;BME280_pressure;Samples;Min_cycle;Max_cycle;Signal;HPM_P1;HPM_P2
2023/07/21 00:01:47;;;;;;;9.30;5.28;;;;;;;17.67;99.33;101127.66;5090903;28;20091;-62
2023/07/21 00:04:17;;;;;;;9.52;5.75;;;;;;;17.71;99.15;101123.16;5128148;28;20055;-62
2023/07/21 00:06:45;;;;;;;10.43;6.85;;;;;;;17.71;98.81;101128.69;5087911;28;20115;-64
2023/07/21 00:09:13;;;;;;;13.20;7.25;;;;;;;17.70;99.03;101120.72;5116978;28;20184;-64
2023/07/21 00:11:41;;;;;;;12.30;6.63;;;;;;;17.68;98.80;101121.84;5127304;28;20099;-62
2023/07/21 00:14:10;;;;;;;8.60;5.82;;;;;;;17.66;98.68;101118.59;5084191;28;20130;-64
2023/07/21 00:16:37;;;;;;;9.63;5.93;;;;;;;17.66;98.87;101117.78;5128578;28;20480;-63
2023/07/21 00:19:06;;;;;;;10.18;6.95;;;;;;;17.64;98.90;101120.03;5098635;28;20165;-63
2023/07/21 00:21:35;;;;;;;10.40;5.90;;;;;;;17.63;99.22;101116.44;5098884;28;20123;-63
2023/07/21 00:24:04;;;;;;;8.25;5.88;;;;;;;17.61;99.02;101120.66;5095281;28;20054;-64
2023/07/21 00:26:32;;;;;;;11.98;6.57;;;;;;;17.58;98.81;101121.25;5086482;28;20043;-64
2023/07/21 00:29:00;;;;;;;9.98;5.97;;;;;;;17.55;98.78;101121.88;5117278;28;20039;-63
2023/07/21 00:31:29;;;;;;;8.20;5.28;;;;;;;17.52;99.02;101116.97;5094862;28;20064;-64
2023/07/21 00:33:57;;;;;;;9.52;4.80;;;;;;;17.51;99.34;101118.09;5090495;28;20043;-65
2023/07/21 00:36:25;;;;;;;8.25;5.00;;;;;;;17.51;99.62;101109.81;5114104;28;20051;-64
2023/07/21 00:38:56;;;;;;;8.95;5.32;;;;;;;17.53;99.71;101111.13;5115877;28;20042;-64
2023/07/21 00:41:24;;;;;;;6.60;4.80;;;;;;;17.51;99.51;101107.06;5094517;28;20054;-65
2023/07/21 00:43:52;;;;;;;7.60;5.70;;;;;;;17.44;99.18;101110.25;5094004;28;20052;-64
2023/07/21 00:46:21;;;;;;;6.95;5.18;;;;;;;17.38;100.00;101106.78;5094857;28;20104;-66
2023/07/21 00:48:50;;;;;;;6.45;4.45;;;;;;;17.37;100.00;101110.66;5112171;28;20051;-64
2023/07/21 00:51:18;;;;;;;7.47;5.50;;;;;;;17.37;100.00;101110.66;5113965;28;20058;-63
2023/07/21 00:53:47;;;;;;;7.68;4.70;;;;;;;17.40;100.00;101110.03;5115111;28;20069;-63
2023/07/21 00:56:15;;;;;;;7.07;5.07;;;;;;;17.44;100.00;101104.75;5114966;28;20051;-64
2023/07/21 00:58:43;;;;;;;6.63;4.82;;;;;;;17.46;100.00;101107.97;5113409;28;20096;-64
2023/07/21 01:01:13;;;;;;;9.30;5.38;;;;;;;17.42;99.70;101107.00;5114665;28;20509;-67
2023/07/21 01:03:41;;;;;;;8.88;5.35;;;;;;;17.38;99.93;101101.25;5097867;28;20054;-65
2023/07/21 01:06:10;;;;;;;9.27;5.70;;;;;;;17.37;99.62;101101.59;5114709;28;20062;-64
2023/07/21 01:08:38;;;;;;;7.70;5.32;;;;;;;17.33;100.00;101090.34;5111695;28;20039;-65
2023/07/21 01:11:10;;;;;;;8.30;5.88;;;;;;;17.31;100.00;101087.09;5079614;28;20406;-66
2023/07/21 01:13:40;;;;;;;11.98;6.47;;;;;;;17.30;100.00;101088.22;5095175;28;20043;-65
2023/07/21 01:16:09;;;;;;;8.30;6.35;;;;;;;17.29;100.00;101092.06;5059979;28;20074;-64
2023/07/21 01:18:37;;;;;;;9.40;6.32;;;;;;;17.22;100.00;101084.25;5064170;28;20047;-64
2023/07/21 01:21:06;;;;;;;8.45;5.75;;;;;;;17.17;100.00;101078.00;5079358;28;20050;-66
2023/07/21 01:23:59;;;;;;;10.35;6.32;;;;;;;17.11;100.00;101080.06;5079320;28;20050;-66
2023/07/21 01:26:28;;;;;;;9.68;6.38;;;;;;;17.07;100.00;101084.53;5079665;28;20052;-65
2023/07/21 01:28:59;;;;;;;9.27;5.88;;;;;;;17.02;100.00;101073.63;5095530;28;20043;-68
2023/07/21 01:31:29;;;;;;;10.18;6.25;;;;;;;17.01;100.00;101070.06;5075974;28;20062;-64
2023/07/21 01:33:57;;;;;;;8.25;6.13;;;;;;;16.99;100.00;101072.31;5075632;28;20044;-64
2023/07/21 01:36:26;;;;;;;8.10;5.50;;;;;;;17.01;100.00;101069.25;5093765;28;20054;-64
2023/07/21 01:38:54;;;;;;;12.65;5.95;;;;;;;17.02;100.00;101066.19;5096096;28;20499;-64
2023/07/21 01:41:23;;;;;;;9.45;6.25;;;;;;;17.03;100.00;101062.31;5112836;28;20058;-64
2023/07/21 01:43:53;;;;;;;8.55;6.00;;;;;;;17.01;100.00;101064.56;5096515;28;20406;-64
2023/07/21 01:46:21;;;;;;;9.90;6.43;;;;;;;16.96;100.00;101059.16;5094545;28;20390;-64
2023/07/21 01:48:49;;;;;;;9.13;6.38;;;;;;;16.89;100.00;101060.69;5101043;28;20448;-63
2023/07/21 01:51:21;;;;;;;9.63;6.30;;;;;;;16.81;100.00;101063.03;5082901;28;20043;-64
2023/07/21 01:53:59;;;;;;;10.43;5.57;;;;;;;16.78;100.00;101057.28;5085371;28;20040;-64
2023/07/21 01:56:40;;;;;;;9.13;6.15;;;;;;;16.78;100.00;101054.50;5079640;28;20044;-65
2023/07/21 01:59:11;;;;;;;10.63;6.35;;;;;;;16.79;100.00;101054.25;5088461;28;20490;-64
2023/07/21 02:01:39;;;;;;;9.13;6.03;;;;;;;16.82;100.00;101058.34;5082231;28;20046;-64
2023/07/21 02:04:07;;;;;;;9.50;5.55;;;;;;;16.82;100.00;101053.63;5115908;28;20040;-65
2023/07/21 02:06:35;;;;;;;9.82;5.93;;;;;;;16.81;100.00;101051.19;5099634;28;20043;-65
2023/07/21 02:09:03;;;;;;;7.30;5.45;;;;;;;16.78;100.00;101054.50;5109873;28;20058;-65
2023/07/21 02:11:31;;;;;;;9.30;5.00;;;;;;;16.78;100.00;101041.59;5117026;28;20058;-65
2023/07/21 02:14:19;;;;;;;7.47;4.75;;;;;;;16.81;100.00;101042.91;5106106;28;20051;-61
2023/07/21 02:16:47;;;;;;;7.18;5.00;;;;;;;16.83;100.00;101046.19;5099365;28;20052;-63
2023/07/21 02:19:17;;;;;;;6.38;4.68;;;;;;;16.84;100.00;101045.09;5099312;28;20538;-63
2023/07/21 02:21:45;;;;;;;7.80;4.80;;;;;;;16.82;100.00;101039.06;5096347;28;20497;-65
2023/07/21 02:24:13;;;;;;;8.25;5.32;;;;;;;16.80;100.00;101041.31;5099234;28;20389;-64
2023/07/21 02:26:41;;;;;;;7.03;5.40;;;;;;;16.79;100.00;101046.00;5099899;28;20378;-63
2023/07/21 02:29:10;;;;;;;7.93;5.47;;;;;;;16.77;100.00;101039.94;5082432;28;20050;-64
2023/07/21 02:31:38;;;;;;;7.38;5.45;;;;;;;16.74;100.00;101045.22;5097994;28;20059;-63
2023/07/21 02:34:06;;;;;;;8.57;5.53;;;;;;;16.69;100.00;101039.81;5117633;28;20046;-65
2023/07/21 02:36:34;;;;;;;8.85;5.60;;;;;;;16.67;100.00;101036.56;5098566;28;20044;-66
2023/07/21 02:39:02;;;;;;;9.07;5.53;;;;;;;16.61;100.00;101042.16;5116678;28;20039;-64
2023/07/21 02:41:30;;;;;;;9.48;5.13;;;;;;;16.58;100.00;101034.53;5116117;28;20036;-64
2023/07/21 02:43:58;;;;;;;10.43;5.15;;;;;;;16.58;100.00;101040.03;5099605;28;20047;-64
2023/07/21 02:46:26;;;;;;;14.50;5.97;;;;;;;16.56;100.00;101036.75;5099254;28;20382;-64
2023/07/21 02:48:54;;;;;;;12.43;5.90;;;;;;;16.52;100.00;101046.72;5098582;28;20051;-63
2023/07/21 02:51:22;;;;;;;11.18;5.30;;;;;;;16.46;100.00;101034.19;5097720;28;20047;-63
2023/07/21 02:53:51;;;;;;;7.55;4.72;;;;;;;16.45;100.00;101029.81;5092869;28;20046;-64
2023/07/21 02:56:19;;;;;;;7.50;5.00;;;;;;;16.47;100.00;101022.06;5045313;28;20054;-64
2023/07/21 02:59:03;;;;;;;8.15;5.13;;;;;;;16.50;100.00;101029.72;5086272;28;20039;-64
2023/07/21 03:01:31;;;;;;;9.43;5.28;;;;;;;16.52;100.00;101021.16;5081500;28;20052;-64
2023/07/21 03:03:59;;;;;;;9.32;5.50;;;;;;;16.50;100.00;101026.13;5080193;28;20039;-64
2023/07/21 03:06:30;;;;;;;13.57;5.30;;;;;;;16.48;100.00;101020.16;5081928;28;20491;-63
2023/07/21 03:08:58;;;;;;;7.55;5.35;;;;;;;16.46;100.00;101020.44;5116907;28;20043;-65
2023/07/21 03:11:29;;;;;;;8.23;5.38;;;;;;;16.47;100.00;101024.81;5098137;28;20043;-63
2023/07/21 03:14:10;;;;;;;7.43;5.10;;;;;;;16.48;100.00;101023.72;5098033;28;20505;-63
2023/07/21 03:16:38;;;;;;;7.22;4.53;;;;;;;16.47;100.00;101022.06;5098199;28;20051;-64
2023/07/21 03:19:08;;;;;;;8.25;4.57;;;;;;;16.47;100.00;101021.25;5097768;28;20513;-64
2023/07/21 03:21:36;;;;;;;9.85;4.95;;;;;;;16.48;100.00;101026.47;5097363;28;20422;-64
2023/07/21 03:24:07;;;;;;;8.45;5.00;;;;;;;16.46;100.00;101025.94;5116339;28;20402;-65
2023/07/21 03:26:35;;;;;;;9.13;5.13;;;;;;;16.47;100.00;101026.75;5081495;28;20062;-64
2023/07/21 03:29:03;;;;;;;6.82;3.90;;;;;;;16.47;100.00;101027.56;5098081;28;20054;-65
2023/07/21 03:31:34;;;;;;;7.75;4.35;;;;;;;16.49;100.00;101019.81;5115464;28;20052;-64
2023/07/21 03:34:07;;;;;;;5.70;4.20;;;;;;;16.51;100.00;101022.28;5097089;28;20040;-64
2023/07/21 03:36:36;;;;;;;7.72;4.40;;;;;;;16.52;100.00;101021.97;5098025;28;20044;-65
2023/07/21 03:39:04;;;;;;;7.80;4.80;;;;;;;16.48;100.00;101023.72;5097879;28;20069;-64
2023/07/21 03:41:32;;;;;;;11.10;5.22;;;;;;;16.46;100.00;101020.44;5097930;28;20433;-65
2023/07/21 03:44:00;;;;;;;6.88;4.45;;;;;;;16.39;100.00;101031.84;5059964;28;20048;-64
2023/07/21 03:46:28;;;;;;;8.55;4.63;;;;;;;16.36;100.00;101026.94;5077867;28;20101;-64
2023/07/21 03:48:56;;;;;;;7.30;4.10;;;;;;;16.34;100.00;101023.69;5112597;28;20058;-66
2023/07/21 03:51:26;;;;;;;14.07;4.80;;;;;;;16.33;100.00;101022.06;5116220;28;20039;-64
2023/07/21 03:53:57;;;;;;;11.50;5.07;;;;;;;16.32;100.00;101022.34;5093553;28;20050;-63
2023/07/21 03:56:25;;;;;;;7.75;4.80;;;;;;;16.27;100.00;101022.44;5082589;28;20048;-63
2023/07/21 03:58:55;;;;;;;8.48;4.30;;;;;;;16.24;100.00;101034.03;5096984;28;20055;-63
2023/07/21 04:01:24;;;;;;;9.73;4.30;;;;;;;16.23;100.00;101024.16;5115699;28;20476;-63
2023/07/21 04:03:52;;;;;;;6.68;3.97;;;;;;;16.24;100.00;101017.56;5112705;28;20045;-65
2023/07/21 04:06:23;;;;;;;6.18;3.70;;;;;;;16.25;100.00;101019.16;5097262;28;20044;-64
2023/07/21 04:08:51;;;;;;;5.68;4.07;;;;;;;16.27;100.00;101014.19;5096844;28;20054;-65
2023/07/21 04:11:19;;;;;;;6.88;4.38;;;;;;;16.29;100.00;101014.72;5097247;28;20487;-63
2023/07/21 04:13:47;;;;;;;8.27;4.20;;;;;;;16.36;100.00;101015.94;5100528;28;20399;-64
2023/07/21 04:16:15;;;;;;;9.57;4.25;;;;;;;16.38;100.00;101001.91;5096922;28;20051;-65
2023/07/21 04:18:43;;;;;;;6.70;3.88;;;;;;;16.36;100.00;101006.88;5115431;28;20057;-64
2023/07/21 04:21:11;;;;;;;6.57;4.15;;;;;;;16.35;100.00;100996.97;5115699;28;20062;-64
2023/07/21 04:23:39;;;;;;;14.20;4.47;;;;;;;16.35;100.00;101005.22;5097317;28;20043;-65
2023/07/21 04:26:08;;;;;;;8.13;4.53;;;;;;;16.33;100.00;101005.56;5098882;28;20092;-65
2023/07/21 04:28:36;;;;;;;11.48;4.88;;;;;;;16.33;100.00;101005.56;5103682;28;20124;-63
2023/07/21 04:31:04;;;;;;;9.70;4.68;;;;;;;16.33;100.00;100999.22;5104155;28;20099;-64
2023/07/21 04:33:42;;;;;;;10.32;5.35;;;;;;;16.36;100.00;100996.69;5060868;28;20108;-64
2023/07/21 04:36:09;;;;;;;7.95;4.57;;;;;;;16.39;100.00;101006.28;5076842;28;20048;-63
2023/07/21 04:38:37;;;;;;;5.78;4.43;;;;;;;16.38;100.00;100999.16;5101269;28;20563;-63
2023/07/21 04:41:13;;;;;;;6.68;4.47;;;;;;;16.38;99.76;101001.91;5092747;28;20107;-63
2023/07/21 04:43:43;;;;;;;8.07;4.80;;;;;;;16.37;99.71;100992.81;5098979;28;20138;-64
2023/07/21 04:46:13;;;;;;;10.88;5.00;;;;;;;16.37;99.68;100990.06;5085754;28;20473;-68
2023/07/21 04:48:43;;;;;;;9.40;4.97;;;;;;;16.36;99.69;100998.63;5079103;28;20048;-64
2023/07/21 04:51:14;;;;;;;7.85;4.72;;;;;;;16.34;99.47;100992.63;5090226;28;20505;-63
2023/07/21 04:53:43;;;;;;;6.18;4.38;;;;;;;16.33;99.54;100990.97;5114943;28;20035;-64
2023/07/21 04:56:13;;;;;;;6.22;4.22;;;;;;;16.35;99.97;100996.97;5096605;28;20420;-63
2023/07/21 04:58:51;;;;;;;8.57;5.00;;;;;;;16.36;99.62;100998.63;5094270;28;20368;-64
2023/07/21 05:01:19;;;;;;;9.38;5.55;;;;;;;16.34;98.87;101000.88;5095412;28;20058;-65
2023/07/21 05:03:47;;;;;;;9.15;6.20;;;;;;;16.29;99.11;100999.03;5111770;28;20050;-63
2023/07/21 05:06:15;;;;;;;8.05;5.38;;;;;;;16.24;99.48;101006.56;5095751;28;20047;-64
2023/07/21 05:08:48;;;;;;;7.82;5.80;;;;;;;16.19;100.00;101011.00;5094827;28;20051;-63
2023/07/21 05:11:16;;;;;;;9.90;6.70;;;;;;;16.20;100.00;100998.06;5087469;28;20123;-64
2023/07/21 05:13:45;;;;;;;7.63;5.53;;;;;;;16.19;100.00;101004.72;5079348;28;20054;-65
2023/07/21 05:16:36;;;;;;;7.78;5.38;;;;;;;16.21;100.00;101002.47;5063806;28;20567;-64
2023/07/21 05:19:23;;;;;;;6.72;4.88;;;;;;;16.26;100.00;101001.53;5093694;28;20135;-63
2023/07/21 05:22:16;;;;;;;6.80;4.95;;;;;;;16.34;100.00;101001.69;5046324;28;20052;-63
2023/07/21 05:25:04;;;;;;;8.73;5.20;;;;;;;16.39;100.00;101004.31;5084892;28;20046;-64
2023/07/21 05:27:34;;;;;;;7.07;4.65;;;;;;;16.43;100.00;101004.56;5061111;28;20040;-64
2023/07/21 05:30:06;;;;;;;8.63;5.15;;;;;;;16.44;100.00;100997.91;5087387;28;20052;-65
2023/07/21 05:32:39;;;;;;;7.28;4.88;;;;;;;16.46;100.00;100997.63;5076269;28;20450;-64
2023/07/21 05:35:13;;;;;;;10.95;6.20;;;;;;;16.46;100.00;101003.94;4370705;28;9999950;-65
2023/07/21 05:37:44;;;;;;;8.95;6.72;;;;;;;16.45;100.00;101002.31;5072934;28;20051;-64
2023/07/21 05:40:12;;;;;;;10.25;7.07;;;;;;;16.40;100.00;100999.63;5091251;28;20371;-63
2023/07/21 05:42:40;;;;;;;11.13;6.80;;;;;;;16.35;100.00;101010.72;5085458;28;20051;-66
2023/07/21 05:45:09;;;;;;;12.70;7.90;;;;;;;16.29;100.00;101007.28;5077649;28;20054;-63
2023/07/21 05:47:39;;;;;;;11.15;7.13;;;;;;;16.25;100.00;101021.91;5104401;28;20044;-65
2023/07/21 05:50:08;;;;;;;14.20;7.57;;;;;;;16.23;100.00;101016.72;5076440;28;20043;-64
2023/07/21 05:52:39;;;;;;;10.82;7.57;;;;;;;16.22;100.00;101011.53;5089807;28;20047;-64
2023/07/21 05:55:15;;;;;;;12.60;7.97;;;;;;;16.19;100.00;101010.22;5077554;28;20046;-65
2023/07/21 05:57:43;;;;;;;12.85;7.55;;;;;;;16.13;100.00;101006.72;5081927;28;20044;-66
2023/07/21 06:00:14;;;;;;;11.88;7.78;;;;;;;16.16;100.00;101016.28;5039261;28;20514;-66
2023/07/21 06:02:50;;;;;;;14.20;7.85;;;;;;;16.14;100.00;101007.53;5089115;28;20200;-66
2023/07/21 06:05:18;;;;;;;13.50;7.28;;;;;;;16.11;100.00;101011.69;5072445;28;20048;-64
2023/07/21 06:08:01;;;;;;;12.02;7.80;;;;;;;16.11;100.00;101002.63;5086048;28;20052;-64
2023/07/21 06:10:47;;;;;;;12.35;8.05;;;;;;;16.15;100.00;100998.16;5072277;28;20562;-66
2023/07/21 06:13:33;;;;;;;11.13;8.10;;;;;;;16.17;100.00;100998.69;5086766;28;20048;-66
2023/07/21 06:16:15;;;;;;;10.25;7.45;;;;;;;16.24;100.00;101006.56;5088354;28;20294;-64
2023/07/21 06:18:45;;;;;;;14.38;9.02;;;;;;;16.32;100.00;101000.34;5066597;28;20077;-65
2023/07/21 06:21:13;;;;;;;12.65;8.27;;;;;;;16.38;100.00;100999.16;5073457;28;20043;-64
2023/07/21 06:23:44;;;;;;;11.32;7.22;;;;;;;16.43;100.00;100999.06;5092752;28;20036;-63
2023/07/21 06:26:12;;;;;;;16.25;9.57;;;;;;;16.48;100.00;101006.41;5066707;28;20052;-64
2023/07/21 06:28:40;;;;;;;14.45;10.27;;;;;;;16.51;100.00;101006.59;5084412;28;20036;-63
2023/07/21 06:31:12;;;;;;;15.02;10.95;;;;;;;16.55;100.00;101013.13;5072595;28;20047;-64
2023/07/21 06:33:48;;;;;;;14.13;10.75;;;;;;;16.54;100.00;101000.47;5077681;28;20044;-65
2023/07/21 06:36:35;;;;;;;12.35;10.55;;;;;;;16.54;100.00;101008.72;5100574;28;20062;-64
2023/07/21 06:39:15;;;;;;;14.18;9.27;;;;;;;16.59;100.00;101000.38;5084012;28;20046;-64
2023/07/21 06:41:55;;;;;;;12.90;9.85;;;;;;;16.61;100.00;101006.41;5084027;28;20069;-64
2023/07/21 06:44:53;;;;;;;13.98;10.13;;;;;;;16.66;100.00;101007.44;5072838;28;20128;-64
2023/07/21 06:47:46;;;;;;;12.98;9.13;;;;;;;16.71;100.00;100993.56;5100425;28;20066;-63
2023/07/21 06:50:37;;;;;;;11.13;8.43;;;;;;;16.80;100.00;100991.78;5101907;28;20047;-64
2023/07/21 06:53:07;;;;;;;14.20;9.30;;;;;;;16.86;100.00;100995.22;5081764;28;20351;-66
2023/07/21 06:55:36;;;;;;;13.30;8.93;;;;;;;16.89;100.00;100995.44;5088213;28;20522;-63
2023/07/21 06:58:04;;;;;;;14.10;10.00;;;;;;;16.97;100.00;100991.16;5094512;28;20046;-63
2023/07/21 07:00:33;;;;;;;18.15;10.20;;;;;;;17.01;100.00;100976.47;5095872;28;20083;-65
2023/07/21 07:03:01;;;;;;;22.10;10.23;;;;;;;17.04;100.00;100991.56;5097074;28;20044;-65
2023/07/21 07:05:29;;;;;;;24.13;11.05;;;;;;;17.06;100.00;100988.50;5086096;28;20048;-64
2023/07/21 07:07:57;;;;;;;15.60;10.07;;;;;;;17.08;100.00;100991.75;5081621;28;20036;-66
2023/07/21 07:10:25;;;;;;;15.88;10.15;;;;;;;17.11;100.00;100980.13;5115045;28;20125;-64
2023/07/21 07:12:52;;;;;;;13.40;9.52;;;;;;;17.17;100.00;100981.63;5099043;28;20044;-64
2023/07/21 07:15:20;;;;;;;14.80;10.85;;;;;;;17.16;100.00;100985.53;5090579;28;20035;-63
2023/07/21 07:17:49;;;;;;;16.38;12.65;;;;;;;17.15;100.00;100981.13;5076909;28;20054;-64
2023/07/21 07:20:17;;;;;;;18.20;13.20;;;;;;;17.13;100.00;100980.66;5112996;28;20322;-64
2023/07/21 07:22:45;;;;;;;15.98;12.65;;;;;;;17.10;100.00;100982.06;5091916;28;20047;-63
2023/07/21 07:25:13;;;;;;;15.50;13.82;;;;;;;17.10;100.00;100978.47;5096354;28;20054;-64
2023/07/21 07:27:41;;;;;;;17.73;12.40;;;;;;;17.08;100.00;100983.47;5111260;28;20088;-63
2023/07/21 07:30:09;;;;;;;17.30;12.90;;;;;;;17.08;100.00;100986.22;5105908;28;20451;-64
2023/07/21 07:32:37;;;;;;;15.23;12.93;;;;;;;17.09;100.00;100982.38;5095864;28;20102;-65
2023/07/21 07:35:05;;;;;;;16.27;13.63;;;;;;;17.09;100.00;100988.69;5074582;28;20036;-64
2023/07/21 07:37:33;;;;;;;19.42;14.43;;;;;;;17.07;100.00;100985.44;5096171;28;20054;-63
2023/07/21 07:40:01;;;;;;;19.60;15.30;;;;;;;17.05;100.00;100982.16;5095831;28;20070;-64
2023/07/21 07:42:29;;;;;;;17.70;15.30;;;;;;;17.04;100.00;100992.38;5077159;28;20472;-63
2023/07/21 07:44:59;;;;;;;16.80;13.95;;;;;;;17.06;100.00;100994.00;5060792;28;20233;-65
2023/07/21 07:47:29;;;;;;;20.95;14.93;;;;;;;17.07;100.00;100990.94;5094865;28;20404;-69
2023/07/21 07:49:57;;;;;;;18.17;14.30;;;;;;;17.10;100.00;100986.75;5089660;28;20057;-64
2023/07/21 07:52:25;;;;;;;18.10;14.85;;;;;;;17.13;100.00;100988.91;5077960;28;20392;-63
2023/07/21 07:54:53;;;;;;;17.67;14.23;;;;;;;17.15;100.00;100983.88;5095413;28;20051;-65
2023/07/21 07:57:24;;;;;;;18.27;13.98;;;;;;;17.18;100.00;100995.09;5076623;28;20492;-65
2023/07/21 07:59:51;;;;;;;17.70;14.18;;;;;;;17.20;100.00;100989.31;5070991;28;20062;-64
2023/07/21 08:02:19;;;;;;;17.70;14.55;;;;;;;17.22;100.00;100992.53;5074628;28;20070;-63
2023/07/21 08:04:47;;;;;;;17.98;13.57;;;;;;;17.26;100.00;100990.81;5075265;28;20048;-62
2023/07/21 08:07:16;;;;;;;18.10;14.90;;;;;;;17.28;100.00;100991.31;5046746;28;20048;-62
2023/07/21 08:09:44;;;;;;;20.08;14.35;;;;;;;17.30;100.00;100993.78;5094321;28;20050;-63
2023/07/21 08:12:12;;;;;;;16.80;13.80;;;;;;;17.32;100.00;100991.50;5060454;28;20405;-64
2023/07/21 08:14:40;;;;;;;14.13;12.63;;;;;;;17.35;100.00;100990.91;5095311;28;20484;-64
2023/07/21 08:17:08;;;;;;;17.98;13.80;;;;;;;17.37;100.00;100992.22;5075502;28;20036;-64
2023/07/21 08:19:36;;;;;;;17.27;13.98;;;;;;;17.37;100.00;100981.19;5075615;28;20048;-64
2023/07/21 08:22:07;;;;;;;17.23;12.40;;;;;;;17.42;100.00;100985.78;5077793;28;20056;-65
2023/07/21 08:24:35;;;;;;;13.63;10.65;;;;;;;17.44;100.00;100978.84;5095604;28;20039;-65
2023/07/21 08:27:03;;;;;;;8.70;6.22;;;;;;;17.53;100.00;100984.41;5095285;28;20047;-65
2023/07/21 08:29:31;;;;;;;14.75;9.98;;;;;;;17.59;98.25;100985.13;5075529;28;20040;-65
2023/07/21 08:31:59;;;;;;;11.45;9.20;;;;;;;17.58;97.70;100989.81;5112853;28;20069;-65
2023/07/21 08:34:27;;;;;;;13.68;8.02;;;;;;;17.65;97.44;100992.13;5115822;28;20050;-65
2023/07/21 08:36:55;;;;;;;13.68;8.23;;;;;;;17.64;97.55;100996.81;5115804;28;20394;-64
2023/07/21 08:39:24;;;;;;;14.65;8.25;;;;;;;17.63;97.74;100991.63;5096488;28;20055;-65
2023/07/21 08:41:54;;;;;;;11.85;8.48;;;;;;;17.65;97.93;100992.13;5079450;28;20047;-65
2023/07/21 08:44:22;;;;;;;9.25;7.05;;;;;;;17.68;97.80;100994.28;5097255;28;20046;-65
2023/07/21 08:46:51;;;;;;;11.05;7.60;;;;;;;17.69;97.94;100990.38;5115420;28;20047;-65
2023/07/21 08:49:19;;;;;;;7.10;4.85;;;;;;;17.73;98.07;100990.59;5111449;28;20043;-65
2023/07/21 08:51:47;;;;;;;11.95;8.80;;;;;;;17.71;96.96;100992.84;5098164;28;20058;-64
2023/07/21 08:54:15;;;;;;;11.45;8.50;;;;;;;17.68;97.44;100997.03;5098988;28;20040;-66
2023/07/21 08:56:42;;;;;;;10.93;7.53;;;;;;;17.70;97.80;100994.75;5103370;28;20099;-64
2023/07/21 08:59:10;;;;;;;9.93;5.82;;;;;;;17.72;96.50;100995.25;5106766;28;20543;-66
2023/07/21 09:01:38;;;;;;;10.85;7.07;;;;;;;17.76;94.25;100996.28;5098677;28;20448;-65
2023/07/21 09:04:23;;;;;;;12.55;6.90;;;;;;;17.75;92.60;100986.38;5077889;28;20039;-63
2023/07/21 09:06:52;;;;;;;7.43;5.47;;;;;;;17.74;91.24;100993.00;5069733;28;20112;-63
2023/07/21 09:09:21;;;;;;;13.35;7.47;;;;;;;17.72;91.10;100988.94;5106189;28;20135;-63
2023/07/21 09:11:50;;;;;;;10.52;6.93;;;;;;;17.69;90.56;100990.38;5103981;28;20138;-64
2023/07/21 09:14:18;;;;;;;10.82;6.03;;;;;;;17.70;89.61;100992.00;5114934;28;20046;-64
2023/07/21 09:16:48;;;;;;;10.50;6.88;;;;;;;17.73;89.39;100988.63;5096604;28;20480;-63
2023/07/21 09:19:20;;;;;;;11.80;6.60;;;;;;;17.77;88.25;100994.31;5096725;28;20075;-64
2023/07/21 09:21:57;;;;;;;10.88;5.60;;;;;;;17.78;84.70;100988.50;5101583;28;20549;-64
2023/07/21 09:24:25;;;;;;;9.80;6.18;;;;;;;17.80;82.97;100986.28;5103631;28;20122;-63
2023/07/21 09:27:14;;;;;;;8.70;5.80;;;;;;;17.84;83.90;100992.78;5119569;28;20463;-67
2023/07/21 09:29:43;;;;;;;7.65;4.78;;;;;;;17.99;84.61;100996.28;5108320;28;20050;-64
2023/07/21 09:32:18;;;;;;;9.93;5.50;;;;;;;18.06;80.89;100989.25;5096933;28;20048;-65
2023/07/21 09:35:02;;;;;;;7.37;5.00;;;;;;;18.15;79.20;100991.22;5097271;28;20069;-64
2023/07/21 09:37:33;;;;;;;6.53;4.18;;;;;;;18.27;79.80;100978.47;5114227;28;20051;-66
2023/07/21 09:40:09;;;;;;;8.27;4.45;;;;;;;18.34;75.78;100974.47;5094320;28;20047;-64
2023/07/21 09:42:42;;;;;;;11.50;6.47;;;;;;;18.39;78.05;100975.13;5115544;28;20402;-64
2023/07/21 09:45:10;;;;;;;11.20;7.20;;;;;;;18.48;78.51;100972.41;5114813;28;20115;-64
2023/07/21 09:47:41;;;;;;;11.05;6.10;;;;;;;18.56;78.01;100974.41;5079672;28;20047;-64
2023/07/21 09:50:11;;;;;;;9.93;5.63;;;;;;;18.61;73.24;100974.25;5111812;28;20039;-65
2023/07/21 09:52:42;;;;;;;7.57;4.43;;;;;;;18.68;77.54;100966.31;5114554;28;20036;-65
2023/07/21 09:55:13;;;;;;;10.25;5.40;;;;;;;18.74;71.77;100967.00;5093808;28;20046;-64
2023/07/21 09:57:45;;;;;;;8.10;5.03;;;;;;;18.82;72.93;100962.69;5095342;28;20058;-65
2023/07/21 10:00:15;;;;;;;9.25;4.40;;;;;;;18.84;74.67;100960.41;5114176;28;20048;-66
2023/07/21 10:02:51;;;;;;;10.10;6.80;;;;;;;18.86;74.01;100958.16;5095865;28;20052;-65
2023/07/21 10:05:20;;;;;;;10.25;6.38;;;;;;;18.85;72.99;100962.84;5115230;28;20058;-63
2023/07/21 10:07:50;;;;;;;9.63;5.20;;;;;;;18.80;72.50;100957.47;5095576;28;20039;-66
2023/07/21 10:10:18;;;;;;;9.55;6.05;;;;;;;18.78;73.33;100953.41;5099980;28;20480;-65
2023/07/21 10:12:50;;;;;;;10.10;6.45;;;;;;;18.76;74.23;100959.25;5099997;28;20062;-65
2023/07/21 10:15:27;;;;;;;12.35;6.60;;;;;;;18.76;75.16;100955.63;5117662;28;20056;-64
2023/07/21 10:17:58;;;;;;;10.35;6.93;;;;;;;18.76;75.68;100958.38;5116791;28;20058;-63
2023/07/21 10:20:49;;;;;;;11.30;7.07;;;;;;;18.74;76.74;100959.53;5082111;28;20047;-63
2023/07/21 10:23:30;;;;;;;10.18;6.65;;;;;;;18.73;76.63;100955.13;5100100;28;20054;-65
2023/07/21 10:26:03;;;;;;;11.88;7.75;;;;;;;18.71;76.70;100957.44;5117614;28;20050;-64
2023/07/21 10:28:43;;;;;;;12.18;7.50;;;;;;;18.70;77.28;100957.72;5097847;28;20039;-64
2023/07/21 10:31:24;;;;;;;11.98;8.98;;;;;;;18.69;78.17;100962.44;5116482;28;20055;-66
2023/07/21 10:34:14;;;;;;;12.25;7.65;;;;;;;18.69;78.16;100965.22;5078997;28;20541;-63
2023/07/21 10:36:42;;;;;;;11.05;7.20;;;;;;;18.72;78.85;100967.31;5079559;28;20054;-63
2023/07/21 10:39:12;;;;;;;14.55;7.72;;;;;;;18.80;77.41;100960.22;5097723;28;20039;-64
2023/07/21 10:41:40;;;;;;;11.18;6.95;;;;;;;18.90;77.01;100961.88;5065966;28;20051;-65
2023/07/21 10:44:09;;;;;;;13.90;8.27;;;;;;;18.97;76.85;100950.38;5099421;28;20054;-63
2023/07/21 10:46:38;;;;;;;12.10;8.63;;;;;;;19.00;77.37;100950.56;4375103;28;10000623;-66
2023/07/21 10:49:11;;;;;;;14.70;8.52;;;;;;;19.08;78.41;100951.69;5073945;28;20052;-66
2023/07/21 10:51:39;;;;;;;14.73;9.02;;;;;;;19.09;77.77;100950.53;5113522;28;20524;-64
2023/07/21 10:54:08;;;;;;;13.35;8.10;;;;;;;19.09;76.85;100948.59;5113299;28;20058;-65
2023/07/21 10:56:41;;;;;;;10.52;8.02;;;;;;;19.09;76.42;100947.78;5113139;28;20062;-65
2023/07/21 10:59:10;;;;;;;11.77;7.10;;;;;;;19.12;73.22;100947.13;5112225;28;20084;-66
2023/07/21 11:01:47;;;;;;;11.40;6.40;;;;;;;19.12;71.11;100947.97;5112523;28;20050;-65
2023/07/21 11:04:16;;;;;;;10.43;6.35;;;;;;;19.10;72.59;100950.22;5112969;28;20048;-65
2023/07/21 11:06:46;;;;;;;37.38;18.85;;;;;;;19.09;74.04;100943.06;5113207;28;20477;-66
2023/07/21 11:09:16;;;;;;;9.55;5.78;;;;;;;19.09;72.31;100945.03;5076830;28;20057;-65
2023/07/21 11:11:46;;;;;;;10.05;5.90;;;;;;;19.08;72.52;100944.22;5077737;28;20050;-65
2023/07/21 11:14:17;;;;;;;22.38;12.52;;;;;;;19.06;73.25;100943.72;5111384;28;20047;-64
2023/07/21 11:16:49;;;;;;;15.02;8.38;;;;;;;19.04;73.57;100943.22;5111220;28;20047;-66
2023/07/21 11:19:17;;;;;;;11.90;7.43;;;;;;;19.02;74.92;100948.25;5094649;28;20486;-65
2023/07/21 11:21:46;;;;;;;9.20;5.80;;;;;;;18.97;75.76;100953.94;5094080;28;20054;-65
2023/07/21 11:24:19;;;;;;;9.55;6.93;;;;;;;18.90;75.72;100959.91;5113284;28;20384;-65
2023/07/21 11:26:47;;;;;;;12.02;7.22;;;;;;;18.85;77.36;100967.53;5094250;28;20559;-66
2023/07/21 11:29:15;;;;;;;11.32;7.63;;;;;;;18.83;79.51;100983.63;5093997;28;20414;-64
2023/07/21 11:31:43;;;;;;;17.27;11.25;;;;;;;18.79;85.21;100999.22;5095109;28;20059;-66